Aérodrome :
LOGIN :

S'inscrire | Disclaimer

   EN    FR    IT 

 










Légende :    VFR   VFR Marginal   IFR   IFR Intensif   IFR Très Intensif
Visi : 
Plafond : 
>= 8 km
>= 3000ft
5 à 8 km
1000 à 3000 ft
1500m à 5 km
500 à 1000 ft
800 à 1500m
200 à 500 ft
< 800m
< 200 ft
Symboles :   Orages  Brouillard  Fortes neiges  Fortes précipitations  Vent > 20 kt
SIGMETs :   Divers  Orages  Givrage  Turbulence  Onde Orograph.  Cendres Volcan.






- Altitude de l'aérodrome : 1115 ft
- Code IATA : GRZ


LOWG - Graz

DERNIER METAR :
  • 271150Z 18011KT 140V230 9999 FEW065 08/M04 Q1007 R17/19//95 NOSIG

METARs EXPIRÉS :
  • 271120Z 17010KT 140V210 9999 FEW060 08/M05 Q1008 R17/19//95 NOSIG
  • 271050Z 16008KT 120V190 9999 FEW065 07/M03 Q1008 R17/19//95 NOSIG
  • 271020Z VRB05KT 9999 FEW065 07/M06 Q1008 R17/19//95 NOSIG
  • 270950Z 17006KT 9999 FEW065 06/M01 Q1008 R17/19//95 NOSIG
  • 270920Z 14003KT 100V200 9999 FEW065 04/M00 Q1009 R17/19//95 NOSIG

TAF TAF LOWG
Valide du 27 à 12h jusqu'au 28 à 12h UTC


271115Z 2712/2812 17010KT 9999 FEW060 TX10/2714Z TN01/2805Z
TEMPO 2712/2722 20015G25KT
TEMPO 2722/2803 VRB04KT
BECMG 2802/2804 31012KT
TEMPO 2803/2805 -SHRASN BKN050
TEMPO 2804/2812 32020G30KT
PROB40
TEMPO 2809/2812 33030G40KT



MET'MAP, la Météo Aéronautique d'un coup d'oeil ! - Copyright ORBIFLY Décembre 2007 - Disclaimer

ORBIFLY MET'MAP TEAM :

Programmation & Développement : Alexandra Zaïnal
Sur une idée originale de : Baudouin d'Aumeries
Assistance à la programmation : Marc-Olivier Méhu
Soutien technique & logistique : Manuel Goepfert

Contact : metmap@orbifly.com




SOURCES & CREDITS :

   NOAA